Create Tblcommutelog Verified Points Advance Search
| # | Trip ID | Id Commuter | Trip Date | Trip Num | Current Lat | Current Lng | Delta Distance | Current Time | Activity | Activity Confidence | Current Speed | |
|---|---|---|---|---|---|---|---|---|---|---|---|---|
| 72021 | 250905_788138_16656702_1701 | 788138 | (not set) | (not set) | 39.3098503 | -76.6273878 | 0 | 2025-09-05 17:06:13 | on_bicycle | 100 | -0.44703925898772 | |
| 72022 | 250905_788138_16656702_1701 | 788138 | (not set) | (not set) | 39.3098503 | -76.6273878 | 0 | 2025-09-05 17:06:13 | on_bicycle | 100 | -0.44703925898772 | |
| 72023 | 250905_770872_16638017_1607 | 770872 | (not set) | (not set) | 39.1797733 | -76.8264998 | 16.6475 | 2025-09-05 17:06:13 | in_vehicle | 100 | 1.309825028834 | |
| 72024 | 250905_785338_16653465_1702 | 785338 | (not set) | (not set) | 38.799113247748 | -77.044844245881 | 0.4305 | 2025-09-05 17:06:14 | on_bicycle | 100 | 2.6107092724883 | |
| 72025 | 250905_785338_16653465_1702 | 785338 | (not set) | (not set) | 38.799113247748 | -77.044844245881 | 0.4305 | 2025-09-05 17:06:14 | on_bicycle | 100 | 2.6107092724883 | |
| 72026 | 250905_771586_16638759_1706 | 771586 | (not set) | (not set) | 38.934536047924 | -76.996709156362 | 0 | 2025-09-05 17:06:14 | unknown | 100 | -0.44703925898772 | |
| 72027 | 250905_771586_16638759_1706 | 771586 | (not set) | (not set) | 38.934536047924 | -76.996709156362 | 0 | 2025-09-05 17:06:14 | unknown | 100 | -0.44703925898772 | |
| 72028 | 250905_785147_16653236_1656 | 785147 | (not set) | (not set) | 38.974278516667 | -77.491227916667 | 4.1536 | 2025-09-05 17:06:15 | still | 33 | 9.0614857796812 | |
| 72029 | 250905_785447_16655759_1608 | 785447 | (not set) | (not set) | 39.306319162825 | -76.593247323701 | 40.8426 | 2025-09-05 17:06:16 | in_vehicle | 100 | 6.6251218181981 | |
| 72030 | 250905_781297_16648973_1622 | 781297 | (not set) | (not set) | 38.890684580619 | -77.020633685905 | 10.1104 | 2025-09-05 17:06:16 | on_foot | 100 | 0.56326946632453 | |
| 72031 | 250905_781297_16648973_1622 | 781297 | (not set) | (not set) | 38.890684580619 | -77.020633685905 | 10.1104 | 2025-09-05 17:06:16 | on_foot | 100 | 0.56326946632453 | |
| 72032 | 250905_772217_16639449_1621 | 772217 | (not set) | (not set) | 38.944957301309 | -77.290759880807 | 18.77 | 2025-09-05 17:06:17 | in_vehicle | 100 | 13.151894999419 | |
| 72033 | 250905_770910_16638064_1645 | 770910 | (not set) | (not set) | 38.814293548346 | -77.053477091162 | 2.2834 | 2025-09-05 17:06:18 | in_vehicle | 100 | 5.1498922635386 | |
| 72034 | 250905_738572_16603589_1636 | 738572 | (not set) | (not set) | 38.918765572333 | -76.948277612565 | 4.9474 | 2025-09-05 17:06:19 | in_vehicle | 100 | 8.7440879057999 | |
| 72035 | 250905_738572_16603589_1636 | 738572 | (not set) | (not set) | 38.918765572333 | -76.948277612565 | 4.9474 | 2025-09-05 17:06:19 | in_vehicle | 100 | 8.7440879057999 | |
| 72036 | 250905_787575_16656058_1652 | 787575 | (not set) | (not set) | 38.897133873718 | -76.841434373208 | 2.1386 | 2025-09-05 17:06:20 | in_vehicle | 100 | 6.5893586774791 | |
| 72037 | 250905_787575_16656058_1652 | 787575 | (not set) | (not set) | 38.897133873718 | -76.841434373208 | 2.1386 | 2025-09-05 17:06:20 | in_vehicle | 100 | 6.5893586774791 | |
| 72038 | 250905_788077_16656633_1601 | 788077 | (not set) | (not set) | 38.803968199352 | -77.506390766715 | 40.6989 | 2025-09-05 17:06:20 | unknown | 100 | 4.9040206710953 | |
| 72039 | 250905_787575_16656058_1652 | 787575 | (not set) | (not set) | 38.897133873718 | -76.841434373208 | 2.1386 | 2025-09-05 17:06:20 | in_vehicle | 100 | 6.5893586774791 | |
| 72040 | 250905_784718_16652718_1624 | 784718 | (not set) | (not set) | 39.137252761029 | -77.354599712615 | 27.9058 | 2025-09-05 17:06:21 | in_vehicle | 100 | 10.585889652829 |